createdAt,value
2022-11-02T00:01:23.285Z,50.80
2022-11-02T00:03:55.592Z,50.64
2022-11-02T00:06:27.865Z,50.83
2022-11-02T00:09:00.047Z,50.85
2022-11-02T00:11:32.289Z,50.79
2022-11-02T00:14:04.584Z,50.76
2022-11-02T00:16:36.921Z,50.89
2022-11-02T00:19:09.756Z,50.87
2022-11-02T00:21:42.130Z,50.82
2022-11-02T00:24:12.759Z,50.90
2022-11-02T00:26:44.923Z,51.00
2022-11-02T00:29:17.109Z,50.98
2022-11-02T00:31:49.296Z,50.98
2022-11-02T00:34:21.426Z,51.08
2022-11-02T00:36:55.611Z,51.16
2022-11-02T00:39:28.000Z,51.12
2022-11-02T00:42:00.162Z,51.16
2022-11-02T00:44:32.256Z,51.20
2022-11-02T00:47:04.515Z,51.27
2022-11-02T00:49:36.654Z,51.29
2022-11-02T00:52:09.295Z,51.39
2022-11-02T00:54:41.433Z,51.33
2022-11-02T00:57:13.536Z,51.36
2022-11-02T00:59:45.716Z,51.44
2022-11-02T01:02:18.157Z,51.44
2022-11-02T01:04:50.489Z,51.48
2022-11-02T01:07:22.731Z,51.52
2022-11-02T01:09:55.080Z,51.38
2022-11-02T01:12:27.497Z,51.61
2022-11-02T01:14:59.664Z,51.47
2022-11-02T01:17:31.888Z,51.57
2022-11-02T01:20:04.459Z,51.55
2022-11-02T01:22:37.081Z,51.62
2022-11-02T01:25:08.052Z,51.55
2022-11-02T01:27:40.193Z,51.63
2022-11-02T01:30:14.393Z,51.62
2022-11-02T01:32:46.908Z,51.67
2022-11-02T01:35:19.251Z,51.74
2022-11-02T01:37:51.363Z,51.67
2022-11-02T01:40:23.532Z,51.68
2022-11-02T01:42:55.680Z,51.73
2022-11-02T01:45:27.933Z,51.64
2022-11-02T01:48:00.436Z,51.65
2022-11-02T01:50:31.166Z,51.54
2022-11-02T01:53:03.353Z,51.64
2022-11-02T01:55:36.536Z,51.58
2022-11-02T01:58:11.508Z,51.61
2022-11-02T02:00:43.721Z,51.70
2022-11-02T02:03:18.338Z,51.77
2022-11-02T02:05:55.043Z,51.73
2022-11-02T02:08:28.112Z,51.95
2022-11-02T02:11:00.874Z,51.80
2022-11-02T02:13:33.279Z,51.92
2022-11-02T02:16:10.786Z,51.82
2022-11-02T02:18:47.073Z,52.04
2022-11-02T02:21:26.719Z,51.87
2022-11-02T02:24:19.475Z,51.99
2022-11-02T02:27:09.164Z,51.94
2022-11-02T02:29:49.942Z,52.03
2022-11-02T02:32:29.363Z,52.00
2022-11-02T02:35:05.728Z,52.06
2022-11-02T02:37:41.332Z,52.13
2022-11-02T02:40:17.231Z,52.15
2022-11-02T02:42:52.291Z,52.11
2022-11-02T02:45:27.828Z,52.08
2022-11-02T02:48:03.741Z,52.15
2022-11-02T02:50:38.975Z,52.23
2022-11-02T02:53:11.319Z,52.31
2022-11-02T02:55:43.683Z,52.12
2022-11-02T02:58:19.848Z,52.32
2022-11-02T03:00:53.179Z,52.40
2022-11-02T03:03:27.142Z,52.29
2022-11-02T03:06:11.549Z,52.33
2022-11-02T03:08:48.427Z,52.36
2022-11-02T03:11:22.132Z,52.39
2022-11-02T03:14:05.447Z,52.36
2022-11-02T03:17:04.231Z,52.49
2022-11-02T03:19:43.044Z,52.53
2022-11-02T03:22:24.155Z,52.58
2022-11-02T03:25:01.831Z,52.63
2022-11-02T03:27:40.964Z,52.58
2022-11-02T03:30:16.511Z,52.70
2022-11-02T03:32:52.224Z,52.67
2022-11-02T03:35:26.538Z,52.75
2022-11-02T03:38:02.428Z,52.68
2022-11-02T03:40:37.171Z,52.66
2022-11-02T03:43:09.831Z,52.83
2022-11-02T03:45:41.084Z,52.84
2022-11-02T03:48:15.007Z,52.69
2022-11-02T03:50:49.844Z,52.66
2022-11-02T03:53:24.516Z,52.87
2022-11-02T03:55:59.948Z,52.96
2022-11-02T03:58:32.550Z,52.97
2022-11-02T04:01:04.903Z,52.98
2022-11-02T04:03:37.927Z,52.93
2022-11-02T04:06:10.560Z,52.88
2022-11-02T04:08:41.366Z,53.06
2022-11-02T04:11:31.106Z,53.16
2022-11-02T04:14:20.913Z,53.11
2022-11-02T04:17:13.763Z,53.10
2022-11-02T04:19:49.640Z,53.24
2022-11-02T04:22:39.729Z,53.26
2022-11-02T04:25:21.997Z,53.28
2022-11-02T04:27:54.879Z,53.29
2022-11-02T04:30:27.251Z,53.32
2022-11-02T04:33:17.636Z,53.33
2022-11-02T04:35:49.810Z,53.46
2022-11-02T04:38:39.272Z,53.57
2022-11-02T04:41:29.731Z,53.69
2022-11-02T04:44:01.993Z,53.65
2022-11-02T04:46:35.331Z,53.75
2022-11-02T04:49:08.239Z,53.76
2022-11-02T04:51:45.725Z,53.80
2022-11-02T04:54:21.040Z,53.78
2022-11-02T04:56:53.341Z,53.93
2022-11-02T04:59:25.483Z,53.89
2022-11-02T05:01:57.868Z,53.85
2022-11-02T05:04:30.443Z,53.90
2022-11-02T05:07:06.399Z,53.96
2022-11-02T05:09:38.517Z,53.85
2022-11-02T05:12:10.989Z,53.97
2022-11-02T05:14:41.532Z,53.92
2022-11-02T05:17:14.707Z,53.88
2022-11-02T05:19:47.228Z,54.07
2022-11-02T05:22:17.671Z,53.96
2022-11-02T05:24:49.817Z,54.02
2022-11-02T05:27:22.364Z,54.11
2022-11-02T05:29:54.457Z,54.09
2022-11-02T05:32:26.655Z,54.17
2022-11-02T05:34:58.724Z,54.00
2022-11-02T05:37:30.845Z,53.90
2022-11-02T05:40:03.025Z,54.15
2022-11-02T05:42:35.138Z,54.11
2022-11-02T05:45:08.071Z,54.04
2022-11-02T05:47:40.135Z,54.14
2022-11-02T05:50:12.545Z,54.06
2022-11-02T05:52:44.634Z,54.08
2022-11-02T05:55:17.074Z,54.20
2022-11-02T05:57:53.697Z,54.29
2022-11-02T06:00:26.336Z,54.23
2022-11-02T06:03:01.693Z,54.28
2022-11-02T06:05:34.210Z,54.29
2022-11-02T06:08:06.714Z,54.21
2022-11-02T06:10:42.536Z,54.26
2022-11-02T06:13:14.677Z,54.28
2022-11-02T06:15:46.809Z,54.29
2022-11-02T06:18:19.024Z,54.33
2022-11-02T06:20:52.044Z,54.33
2022-11-02T06:23:24.607Z,54.27
2022-11-02T06:25:55.264Z,54.33
2022-11-02T06:28:28.075Z,54.49
2022-11-02T06:31:00.436Z,54.50
2022-11-02T06:33:32.775Z,54.58
2022-11-02T06:36:05.952Z,54.61
2022-11-02T06:38:38.703Z,54.53
2022-11-02T06:41:09.261Z,54.73
2022-11-02T06:43:41.596Z,54.68
2022-11-02T06:46:14.124Z,54.69
2022-11-02T06:48:47.638Z,54.62
2022-11-02T06:51:20.034Z,54.64
2022-11-02T06:53:52.125Z,54.62
2022-11-02T06:56:24.313Z,54.73
2022-11-02T06:58:56.482Z,54.66
2022-11-02T07:01:28.308Z,54.73
2022-11-02T07:04:01.796Z,54.86
2022-11-02T07:06:35.062Z,54.75
2022-11-02T07:09:08.817Z,54.68
2022-11-02T07:11:42.123Z,54.63
2022-11-02T07:14:15.814Z,54.57
2022-11-02T07:16:49.512Z,54.66
2022-11-02T07:19:23.787Z,54.51
2022-11-02T07:21:56.228Z,54.48
2022-11-02T07:24:31.010Z,54.53
2022-11-02T07:27:04.458Z,54.41
2022-11-02T07:29:37.821Z,54.64
2022-11-02T07:32:11.085Z,54.51
2022-11-02T07:34:44.164Z,54.49
2022-11-02T07:37:17.563Z,54.56
2022-11-02T07:39:51.824Z,54.36
2022-11-02T07:42:25.089Z,54.45
2022-11-02T07:45:01.034Z,54.43
2022-11-02T07:47:34.591Z,54.34
2022-11-02T07:50:09.785Z,54.31
2022-11-02T07:52:49.196Z,54.32
2022-11-02T07:55:25.044Z,54.23
2022-11-02T07:57:59.586Z,54.28
2022-11-02T08:00:35.072Z,54.28
2022-11-02T08:09:47.109Z,54.09
2022-11-02T08:12:19.563Z,54.00
2022-11-02T08:14:50.089Z,54.08
2022-11-02T08:17:23.000Z,54.00
2022-11-02T08:19:55.237Z,53.93
2022-11-02T08:22:27.546Z,53.83
2022-11-02T08:24:59.723Z,53.73
2022-11-02T08:27:32.010Z,53.69
2022-11-02T08:30:04.390Z,53.69
2022-11-02T08:32:36.620Z,53.60
2022-11-02T08:35:10.000Z,53.46
2022-11-02T08:37:42.305Z,53.33
2022-11-02T08:40:15.855Z,53.32
2022-11-02T08:42:48.048Z,53.16
2022-11-02T08:45:20.272Z,53.19
2022-11-02T08:47:52.494Z,53.02
2022-11-02T08:50:24.965Z,53.01
2022-11-02T08:52:57.483Z,52.90
2022-11-02T08:55:29.815Z,52.72
2022-11-02T08:58:02.877Z,52.70
2022-11-02T09:00:36.353Z,52.49
2022-11-02T09:03:09.749Z,52.39
2022-11-02T09:05:43.544Z,52.20
2022-11-02T09:08:17.464Z,52.31
2022-11-02T09:10:51.063Z,51.84
2022-11-02T09:13:25.921Z,51.95
2022-11-02T09:15:59.450Z,51.63
2022-11-02T09:18:31.963Z,51.52
2022-11-02T09:21:03.976Z,51.50
2022-11-02T09:26:03.714Z,51.19
2022-11-02T09:28:35.683Z,51.04
2022-11-02T09:31:10.795Z,50.88
2022-11-02T09:33:44.113Z,50.75
2022-11-02T09:36:16.374Z,50.67
2022-11-02T09:38:49.384Z,50.71
2022-11-02T09:41:26.970Z,50.34
2022-11-02T09:44:03.483Z,50.21
2022-11-02T09:46:40.124Z,50.04
2022-11-02T09:49:16.639Z,50.01
2022-11-02T09:51:50.259Z,49.81
2022-11-02T09:54:26.722Z,49.64
2022-11-02T09:57:02.287Z,49.41
2022-11-02T09:59:34.652Z,49.10
2022-11-02T10:02:06.582Z,48.56
2022-11-02T10:05:11.424Z,48.42
2022-11-02T10:07:58.163Z,48.34
2022-11-02T10:10:35.380Z,47.91
2022-11-02T10:13:17.388Z,47.70
2022-11-02T10:15:53.815Z,47.25
2022-11-02T10:18:28.238Z,47.11
2022-11-02T10:21:02.056Z,46.74
2022-11-02T10:23:38.100Z,46.53
2022-11-02T10:26:14.491Z,46.33
2022-11-02T10:28:49.936Z,45.95
2022-11-02T10:31:30.709Z,45.33
2022-11-02T10:34:12.571Z,45.02
2022-11-02T10:36:51.154Z,45.04
2022-11-02T10:39:29.871Z,44.62
2022-11-02T10:42:18.478Z,44.30
2022-11-02T10:45:15.834Z,43.95
2022-11-02T10:47:59.711Z,43.24
2022-11-02T10:50:46.566Z,43.14
2022-11-02T10:53:40.113Z,43.10
2022-11-02T10:56:17.794Z,42.19
2022-11-02T10:58:56.134Z,41.89
2022-11-02T11:01:29.107Z,41.73
2022-11-02T11:04:03.529Z,41.47
2022-11-02T11:06:39.347Z,41.27
2022-11-02T11:09:19.079Z,41.09
2022-11-02T11:11:59.963Z,40.70
2022-11-02T11:20:35.859Z,39.98
2022-11-02T11:23:23.141Z,40.16
2022-11-02T11:26:01.345Z,39.86
2022-11-02T11:28:40.421Z,39.21
2022-11-02T11:31:16.076Z,38.77
2022-11-02T11:33:50.977Z,38.68
2022-11-02T11:36:31.603Z,38.57
2022-11-02T11:39:05.801Z,38.58
2022-11-02T11:41:42.858Z,38.34
2022-11-02T11:44:16.524Z,37.85
2022-11-02T11:46:50.279Z,37.61
2022-11-02T11:49:41.526Z,37.44
2022-11-02T11:52:27.017Z,37.18
2022-11-02T11:55:03.380Z,37.10
2022-11-02T12:00:30.361Z,36.49
2022-11-02T12:03:11.124Z,36.01
2022-11-02T12:05:56.181Z,35.96
2022-11-02T12:08:42.432Z,35.79
2022-11-02T12:11:35.128Z,35.38
2022-11-02T12:14:18.138Z,35.21
2022-11-02T12:17:17.540Z,35.00
2022-11-02T12:20:01.953Z,34.61
2022-11-02T12:22:39.130Z,34.51
2022-11-02T12:25:21.266Z,34.42
2022-11-02T12:27:58.936Z,34.06
2022-11-02T12:30:34.989Z,33.78
2022-11-02T12:33:18.739Z,33.81
2022-11-02T12:36:06.159Z,33.33
2022-11-02T12:38:47.839Z,32.97
2022-11-02T12:41:36.765Z,32.99
2022-11-02T12:44:20.904Z,32.98
2022-11-02T12:47:00.707Z,32.79
2022-11-02T12:49:46.587Z,32.54
2022-11-02T12:52:30.745Z,32.41
2022-11-02T12:55:05.395Z,32.04
2022-11-02T12:57:39.514Z,31.96
2022-11-02T13:00:19.925Z,31.80
2022-11-02T13:02:59.307Z,31.47
2022-11-02T13:05:34.646Z,31.34
2022-11-02T13:08:13.479Z,31.35
2022-11-02T13:10:53.332Z,31.12
2022-11-02T13:13:31.237Z,30.90
2022-11-02T13:16:04.219Z,30.83
2022-11-02T13:18:39.572Z,30.55
2022-11-02T13:21:14.599Z,30.40
2022-11-02T13:23:51.168Z,30.39
2022-11-02T13:26:30.456Z,30.40
2022-11-02T13:29:06.969Z,30.22
2022-11-02T13:31:41.648Z,30.04
2022-11-02T13:34:17.478Z,29.90
2022-11-02T13:36:49.807Z,29.76
2022-11-02T13:39:27.678Z,29.74
2022-11-02T13:42:28.699Z,29.66
2022-11-02T13:45:17.889Z,29.51
2022-11-02T13:48:30.603Z,29.39
2022-11-02T13:51:07.136Z,29.24
2022-11-02T13:53:41.452Z,29.29
2022-11-02T13:56:22.236Z,29.43
2022-11-02T13:59:00.821Z,29.31
2022-11-02T14:01:36.630Z,29.26
2022-11-02T14:04:11.425Z,29.32
2022-11-02T14:06:50.106Z,29.26
2022-11-02T14:09:28.397Z,29.06
2022-11-02T14:12:40.941Z,29.05
2022-11-02T14:15:49.880Z,29.02
2022-11-02T14:18:33.519Z,29.27
2022-11-02T14:21:32.463Z,29.17
2022-11-02T14:24:09.861Z,28.99
2022-11-02T14:26:57.162Z,29.04
2022-11-02T14:29:52.236Z,29.16
2022-11-02T14:32:34.867Z,29.01
2022-11-02T14:35:18.346Z,28.98
2022-11-02T14:38:12.627Z,29.20
2022-11-02T14:40:55.525Z,29.22
2022-11-02T14:43:51.364Z,29.35
2022-11-02T14:46:37.223Z,29.36
2022-11-02T14:49:20.184Z,29.39
2022-11-02T14:52:04.293Z,29.54
2022-11-02T14:54:47.571Z,29.59
2022-11-02T14:57:24.497Z,29.69
2022-11-02T14:59:58.996Z,29.68
2022-11-02T15:02:37.349Z,29.89
2022-11-02T15:05:27.795Z,30.15
2022-11-02T15:08:02.457Z,30.24
2022-11-02T15:10:41.994Z,30.30
2022-11-02T15:13:36.209Z,30.39
2022-11-02T15:16:26.477Z,30.10
2022-11-02T15:19:47.581Z,30.54
2022-11-02T15:22:41.024Z,30.88
2022-11-02T15:25:17.331Z,30.86
2022-11-02T15:27:50.191Z,30.94
2022-11-02T15:30:28.388Z,31.19
2022-11-02T15:33:05.357Z,31.21
2022-11-02T15:35:39.970Z,31.28
2022-11-02T15:38:18.193Z,31.39
2022-11-02T15:41:00.847Z,31.77
2022-11-02T15:43:49.533Z,31.89
2022-11-02T15:46:33.417Z,32.03
2022-11-02T15:49:15.956Z,32.17
2022-11-02T15:51:54.480Z,32.22
2022-11-02T15:54:43.435Z,32.33
2022-11-02T15:57:25.499Z,32.48
2022-11-02T16:00:11.191Z,32.76
2022-11-02T16:02:45.027Z,32.87
2022-11-02T16:05:22.362Z,32.97
2022-11-02T16:08:10.564Z,33.00
2022-11-02T16:10:43.406Z,33.06
2022-11-02T16:13:18.271Z,33.15
2022-11-02T16:15:51.261Z,33.30
2022-11-02T16:18:31.269Z,33.33
2022-11-02T16:21:06.771Z,33.45
2022-11-02T16:23:41.140Z,33.56
2022-11-02T16:26:19.941Z,33.57
2022-11-02T16:28:54.258Z,33.65
2022-11-02T16:31:31.308Z,33.79
2022-11-02T16:34:05.156Z,33.77
2022-11-02T16:36:38.751Z,33.92
2022-11-02T16:39:20.457Z,34.00
2022-11-02T16:41:55.814Z,34.11
2022-11-02T16:44:30.023Z,34.20
2022-11-02T16:47:16.929Z,34.21
2022-11-02T16:50:01.818Z,34.29
2022-11-02T16:52:36.274Z,34.36
2022-11-02T16:55:36.322Z,34.50
2022-11-02T16:58:10.336Z,34.71
2022-11-02T17:00:42.649Z,34.71
2022-11-02T17:10:38.793Z,35.02
2022-11-02T17:13:21.911Z,35.04
2022-11-02T17:15:56.921Z,35.10
2022-11-02T17:18:31.077Z,35.22
2022-11-02T17:21:27.393Z,35.27
2022-11-02T17:24:00.929Z,35.24
2022-11-02T17:26:40.835Z,35.42
2022-11-02T17:29:36.345Z,35.55
2022-11-02T17:32:16.738Z,35.60
2022-11-02T17:34:55.998Z,35.84
2022-11-02T17:37:30.831Z,35.70
2022-11-02T17:40:04.871Z,35.95
2022-11-02T17:42:56.139Z,35.91
2022-11-02T17:45:30.180Z,36.27
2022-11-02T17:48:03.377Z,36.10
2022-11-02T17:50:37.664Z,36.26
2022-11-02T17:53:14.492Z,36.36
2022-11-02T17:55:46.662Z,36.49
2022-11-02T17:58:18.889Z,36.56
2022-11-02T18:00:49.706Z,36.58
2022-11-02T18:03:25.525Z,36.75
2022-11-02T18:06:00.611Z,36.65
2022-11-02T18:08:56.387Z,36.69
2022-11-02T18:11:28.558Z,36.82
2022-11-02T18:14:00.922Z,36.82
2022-11-02T18:16:32.186Z,36.91
2022-11-02T18:19:04.404Z,36.97
2022-11-02T18:21:36.617Z,37.07
2022-11-02T18:24:09.540Z,36.90
2022-11-02T18:26:44.259Z,37.21
2022-11-02T18:29:19.258Z,37.13
2022-11-02T18:31:51.655Z,37.24
2022-11-02T18:34:24.015Z,37.35
2022-11-02T18:36:56.144Z,37.40
2022-11-02T18:39:28.399Z,37.45
2022-11-02T18:42:00.659Z,37.28
2022-11-02T18:44:33.034Z,37.46
2022-11-02T18:47:05.155Z,37.55
2022-11-02T18:49:37.372Z,37.67
2022-11-02T18:52:08.111Z,37.68
2022-11-02T18:54:40.335Z,37.94
2022-11-02T18:57:12.571Z,37.85
2022-11-02T18:59:44.815Z,37.92
2022-11-02T19:02:17.233Z,37.95
2022-11-02T19:04:49.717Z,37.97
2022-11-02T19:07:37.999Z,38.04
2022-11-02T19:10:11.075Z,38.00
2022-11-02T19:12:43.295Z,38.20
2022-11-02T19:15:15.540Z,38.04
2022-11-02T19:17:47.804Z,38.24
2022-11-02T19:20:21.168Z,38.28
2022-11-02T19:22:57.528Z,38.22
2022-11-02T19:25:29.979Z,38.36
2022-11-02T19:28:04.656Z,38.37
2022-11-02T19:30:40.034Z,38.45
2022-11-02T19:33:12.219Z,38.59
2022-11-02T19:35:44.386Z,38.72
2022-11-02T19:38:16.623Z,38.58
2022-11-02T19:40:48.825Z,38.81
2022-11-02T19:43:21.058Z,38.96
2022-11-02T19:45:53.261Z,38.97
2022-11-02T19:48:25.566Z,38.86
2022-11-02T19:50:57.736Z,38.85
2022-11-02T19:53:29.901Z,39.15
2022-11-02T19:56:02.101Z,39.19
2022-11-02T19:58:34.418Z,39.19
2022-11-02T20:01:11.840Z,39.15
2022-11-02T20:03:44.551Z,39.19
2022-11-02T20:06:18.846Z,39.22
2022-11-02T20:08:53.520Z,39.30
2022-11-02T20:11:27.539Z,39.31
2022-11-02T20:14:01.097Z,39.51
2022-11-02T20:16:33.428Z,39.28
2022-11-02T20:19:06.717Z,39.62
2022-11-02T20:21:42.959Z,39.55
2022-11-02T20:24:16.487Z,39.79
2022-11-02T20:26:48.665Z,39.76
2022-11-02T20:29:20.780Z,39.82
2022-11-02T20:31:53.033Z,39.88
2022-11-02T20:34:25.212Z,39.89
2022-11-02T20:36:56.011Z,39.92
2022-11-02T20:39:28.256Z,39.99
2022-11-02T20:42:00.499Z,40.05
2022-11-02T20:44:32.811Z,40.22
2022-11-02T20:47:05.057Z,40.34
2022-11-02T20:49:50.147Z,40.30
2022-11-02T20:52:23.236Z,40.42
2022-11-02T20:54:54.045Z,40.49
2022-11-02T20:57:28.367Z,40.47
2022-11-02T21:00:00.632Z,40.55
2022-11-02T21:02:32.951Z,40.65
2022-11-02T21:05:05.282Z,40.72
2022-11-02T21:07:37.480Z,40.68
2022-11-02T21:10:11.836Z,40.73
2022-11-02T21:13:01.318Z,40.81
2022-11-02T21:15:35.479Z,40.92
2022-11-02T21:18:07.909Z,41.01
2022-11-02T21:20:38.498Z,40.96
2022-11-02T21:23:10.719Z,41.18
2022-11-02T21:25:42.979Z,41.15
2022-11-02T21:28:15.210Z,41.39
2022-11-02T21:30:48.601Z,41.43
2022-11-02T21:33:20.767Z,41.48
2022-11-02T21:35:55.043Z,41.53
2022-11-02T21:38:28.149Z,41.69
2022-11-02T21:41:03.366Z,41.68
2022-11-02T21:43:38.464Z,41.83
2022-11-02T21:46:10.619Z,41.86
2022-11-02T21:48:42.863Z,41.95
2022-11-02T21:51:16.323Z,42.09
2022-11-02T21:53:49.348Z,42.17
2022-11-02T21:56:22.558Z,42.20
2022-11-02T21:58:58.863Z,42.30
2022-11-02T22:01:49.338Z,42.37
2022-11-02T22:04:25.526Z,42.46
2022-11-02T22:06:58.501Z,42.57
2022-11-02T22:09:31.107Z,42.65
2022-11-02T22:12:20.918Z,42.68
2022-11-02T22:14:53.162Z,42.72
2022-11-02T22:17:48.641Z,42.75
2022-11-02T22:20:18.736Z,42.89
2022-11-02T22:22:51.033Z,42.86
2022-11-02T22:25:23.546Z,42.97
2022-11-02T22:27:54.366Z,42.91
2022-11-02T22:30:29.472Z,43.22
2022-11-02T22:33:01.596Z,43.19
2022-11-02T22:35:33.822Z,43.25
2022-11-02T22:38:23.337Z,43.39
2022-11-02T22:41:01.837Z,43.48
2022-11-02T22:43:34.062Z,43.58
2022-11-02T22:46:07.993Z,43.67
2022-11-02T22:48:40.159Z,43.69
2022-11-02T22:51:13.083Z,43.82
2022-11-02T22:53:45.275Z,43.89
2022-11-02T22:56:18.964Z,43.94
2022-11-02T22:58:52.083Z,44.04
2022-11-02T23:01:25.990Z,44.02
2022-11-02T23:03:58.598Z,44.12
2022-11-02T23:06:30.940Z,44.10
2022-11-02T23:09:03.251Z,44.14
2022-11-02T23:11:37.426Z,44.18
2022-11-02T23:14:11.440Z,44.28
2022-11-02T23:16:46.891Z,44.33
2022-11-02T23:19:30.840Z,44.37
2022-11-02T23:22:22.312Z,44.45
2022-11-02T23:25:15.324Z,44.40
2022-11-02T23:28:06.708Z,44.48
2022-11-02T23:30:57.509Z,44.48
2022-11-02T23:33:32.397Z,44.59
2022-11-02T23:36:15.820Z,44.60
2022-11-02T23:39:06.070Z,44.62
2022-11-02T23:41:39.168Z,44.83
2022-11-02T23:44:14.603Z,44.77
2022-11-02T23:46:48.722Z,44.82
2022-11-02T23:49:21.177Z,44.91
2022-11-02T23:52:09.270Z,45.01
2022-11-02T23:54:59.095Z,45.12
2022-11-02T23:57:32.022Z,45.11
